sensor_id;sensor_type;location;lat;lon;timestamp;temperature;humidity
41168;DHT22;26906;45.658;9.272;2023-11-21T06:34:48;11.70;99.90
41168;DHT22;26906;45.658;9.272;2023-11-21T06:37:15;11.60;99.90
41168;DHT22;26906;45.658;9.272;2023-11-21T06:39:42;11.60;99.90
41168;DHT22;26906;45.658;9.272;2023-11-21T06:42:11;11.70;99.90
41168;DHT22;26906;45.658;9.272;2023-11-21T06:44:37;11.70;99.90
41168;DHT22;26906;45.658;9.272;2023-11-21T06:47:03;11.70;99.90
41168;DHT22;26906;45.658;9.272;2023-11-21T06:49:29;11.60;99.90
41168;DHT22;26906;45.658;9.272;2023-11-21T06:51:54;11.60;99.90
41168;DHT22;26906;45.658;9.272;2023-11-21T06:54:21;11.70;99.90
41168;DHT22;26906;45.658;9.272;2023-11-21T06:56:47;11.70;99.90
41168;DHT22;26906;45.658;9.272;2023-11-21T06:59:12;11.70;99.90
41168;DHT22;26906;45.658;9.272;2023-11-21T07:01:38;11.60;99.90
41168;DHT22;26906;45.658;9.272;2023-11-21T07:04:06;11.70;99.90
41168;DHT22;26906;45.658;9.272;2023-11-21T07:06:32;11.60;99.90
41168;DHT22;26906;45.658;9.272;2023-11-21T07:08:58;11.60;99.90
41168;DHT22;26906;45.658;9.272;2023-11-21T07:11:24;11.40;99.90
41168;DHT22;26906;45.658;9.272;2023-11-21T07:13:51;11.70;99.90
41168;DHT22;26906;45.658;9.272;2023-11-21T07:16:18;11.80;99.90
41168;DHT22;26906;45.658;9.272;2023-11-21T07:18:44;11.90;99.90
41168;DHT22;26906;45.658;9.272;2023-11-21T07:21:10;11.90;99.90
41168;DHT22;26906;45.658;9.272;2023-11-21T07:23:38;12.00;99.90
41168;DHT22;26906;45.658;9.272;2023-11-21T07:26:03;12.00;99.90
41168;DHT22;26906;45.658;9.272;2023-11-21T07:28:34;12.10;99.90
41168;DHT22;26906;45.658;9.272;2023-11-21T07:31:01;12.00;99.90
41168;DHT22;26906;45.658;9.272;2023-11-21T07:33:27;12.10;99.90
41168;DHT22;26906;45.658;9.272;2023-11-21T07:35:52;12.20;99.90
41168;DHT22;26906;45.658;9.272;2023-11-21T07:38:18;12.10;99.90
41168;DHT22;26906;45.658;9.272;2023-11-21T07:40:44;12.10;99.90
41168;DHT22;26906;45.658;9.272;2023-11-21T07:43:09;12.20;99.90
41168;DHT22;26906;45.658;9.272;2023-11-21T07:45:36;12.10;99.90
41168;DHT22;26906;45.658;9.272;2023-11-21T07:48:02;12.10;99.90
41168;DHT22;26906;45.658;9.272;2023-11-21T07:50:30;12.10;99.90
41168;DHT22;26906;45.658;9.272;2023-11-21T07:52:57;12.10;99.90
41168;DHT22;26906;45.658;9.272;2023-11-21T07:55:23;12.10;99.90
41168;DHT22;26906;45.658;9.272;2023-11-21T07:57:50;12.10;99.90
41168;DHT22;26906;45.658;9.272;2023-11-21T08:00:16;12.20;99.90
41168;DHT22;26906;45.658;9.272;2023-11-21T08:02:42;12.20;99.90
41168;DHT22;26906;45.658;9.272;2023-11-21T08:05:08;12.20;99.90
41168;DHT22;26906;45.658;9.272;2023-11-21T08:07:34;12.20;99.90
41168;DHT22;26906;45.658;9.272;2023-11-21T08:10:00;12.30;99.90
41168;DHT22;26906;45.658;9.272;2023-11-21T08:12:26;12.20;99.90
41168;DHT22;26906;45.658;9.272;2023-11-21T08:14:53;12.20;99.90
41168;DHT22;26906;45.658;9.272;2023-11-21T08:17:19;12.20;99.90
41168;DHT22;26906;45.658;9.272;2023-11-21T08:19:46;12.30;99.90
41168;DHT22;26906;45.658;9.272;2023-11-21T08:22:15;12.30;99.90
41168;DHT22;26906;45.658;9.272;2023-11-21T08:24:44;12.40;99.90
41168;DHT22;26906;45.658;9.272;2023-11-21T08:27:12;12.20;99.90
41168;DHT22;26906;45.658;9.272;2023-11-21T08:29:43;12.20;99.90
41168;DHT22;26906;45.658;9.272;2023-11-21T08:32:09;12.20;99.90
41168;DHT22;26906;45.658;9.272;2023-11-21T08:34:34;12.20;99.90
41168;DHT22;26906;45.658;9.272;2023-11-21T08:37:02;12.20;99.90
41168;DHT22;26906;45.658;9.272;2023-11-21T08:39:27;12.40;99.90
41168;DHT22;26906;45.658;9.272;2023-11-21T08:41:56;12.50;99.90
41168;DHT22;26906;45.658;9.272;2023-11-21T08:44:22;12.50;99.90
41168;DHT22;26906;45.658;9.272;2023-11-21T08:46:48;12.50;99.90
41168;DHT22;26906;45.658;9.272;2023-11-21T08:49:14;12.60;99.90
41168;DHT22;26906;45.658;9.272;2023-11-21T08:51:41;12.80;99.90
41168;DHT22;26906;45.658;9.272;2023-11-21T08:54:06;12.90;99.90
41168;DHT22;26906;45.658;9.272;2023-11-21T08:56:35;13.10;99.90
41168;DHT22;26906;45.658;9.272;2023-11-21T08:59:01;13.20;99.90
41168;DHT22;26906;45.658;9.272;2023-11-21T09:01:28;13.30;99.90
41168;DHT22;26906;45.658;9.272;2023-11-21T09:03:54;13.30;99.90
41168;DHT22;26906;45.658;9.272;2023-11-21T09:06:20;13.40;99.90
41168;DHT22;26906;45.658;9.272;2023-11-21T09:08:45;13.50;99.90
41168;DHT22;26906;45.658;9.272;2023-11-21T09:11:11;13.70;99.90
41168;DHT22;26906;45.658;9.272;2023-11-21T09:13:36;13.80;99.90
41168;DHT22;26906;45.658;9.272;2023-11-21T09:16:03;13.80;99.90
41168;DHT22;26906;45.658;9.272;2023-11-21T09:18:28;14.00;99.90
41168;DHT22;26906;45.658;9.272;2023-11-21T09:20:54;14.10;99.90
41168;DHT22;26906;45.658;9.272;2023-11-21T09:23:20;14.20;99.90
41168;DHT22;26906;45.658;9.272;2023-11-21T09:25:46;14.30;99.90
41168;DHT22;26906;45.658;9.272;2023-11-21T09:28:15;14.30;99.90
41168;DHT22;26906;45.658;9.272;2023-11-21T09:30:43;14.30;99.90
41168;DHT22;26906;45.658;9.272;2023-11-21T09:33:09;14.40;99.90
41168;DHT22;26906;45.658;9.272;2023-11-21T09:35:39;14.60;99.90
41168;DHT22;26906;45.658;9.272;2023-11-21T09:38:05;14.50;99.90
41168;DHT22;26906;45.658;9.272;2023-11-21T09:40:37;14.60;99.90
41168;DHT22;26906;45.658;9.272;2023-11-21T09:43:16;14.70;99.90
41168;DHT22;26906;45.658;9.272;2023-11-21T09:45:51;14.80;99.90
41168;DHT22;26906;45.658;9.272;2023-11-21T09:48:20;14.90;99.90
41168;DHT22;26906;45.658;9.272;2023-11-21T09:50:47;14.90;99.90
41168;DHT22;26906;45.658;9.272;2023-11-21T09:53:17;15.00;99.90
41168;DHT22;26906;45.658;9.272;2023-11-21T09:55:44;15.10;99.90
41168;DHT22;26906;45.658;9.272;2023-11-21T09:58:11;15.10;99.90
41168;DHT22;26906;45.658;9.272;2023-11-21T10:00:40;15.00;99.90
41168;DHT22;26906;45.658;9.272;2023-11-21T10:03:07;15.10;99.90
41168;DHT22;26906;45.658;9.272;2023-11-21T10:05:33;15.20;99.90
41168;DHT22;26906;45.658;9.272;2023-11-21T10:08:00;15.20;99.90
41168;DHT22;26906;45.658;9.272;2023-11-21T10:10:27;15.30;99.90
41168;DHT22;26906;45.658;9.272;2023-11-21T10:12:56;15.20;99.90
41168;DHT22;26906;45.658;9.272;2023-11-21T10:15:23;15.10;99.90
41168;DHT22;26906;45.658;9.272;2023-11-21T10:17:52;15.00;99.90
41168;DHT22;26906;45.658;9.272;2023-11-21T10:20:19;14.90;99.90
41168;DHT22;26906;45.658;9.272;2023-11-21T10:22:45;15.00;99.90
41168;DHT22;26906;45.658;9.272;2023-11-21T10:25:13;15.10;99.90
41168;DHT22;26906;45.658;9.272;2023-11-21T10:27:40;15.30;99.90
41168;DHT22;26906;45.658;9.272;2023-11-21T10:30:07;15.50;99.90
41168;DHT22;26906;45.658;9.272;2023-11-21T10:32:33;15.70;99.90
41168;DHT22;26906;45.658;9.272;2023-11-21T10:35:00;15.60;99.90
41168;DHT22;26906;45.658;9.272;2023-11-21T10:37:26;15.60;99.90
41168;DHT22;26906;45.658;9.272;2023-11-21T10:39:58;15.70;99.90
41168;DHT22;26906;45.658;9.272;2023-11-21T10:42:24;15.70;99.90
41168;DHT22;26906;45.658;9.272;2023-11-21T10:44:50;15.80;99.90
41168;DHT22;26906;45.658;9.272;2023-11-21T10:47:17;15.60;99.90
41168;DHT22;26906;45.658;9.272;2023-11-21T10:49:44;15.60;99.90
41168;DHT22;26906;45.658;9.272;2023-11-21T10:52:14;15.70;99.90
41168;DHT22;26906;45.658;9.272;2023-11-21T10:54:43;15.70;99.90
41168;DHT22;26906;45.658;9.272;2023-11-21T10:57:10;15.80;99.90
41168;DHT22;26906;45.658;9.272;2023-11-21T10:59:36;15.90;99.90
41168;DHT22;26906;45.658;9.272;2023-11-21T11:02:16;16.00;99.90
41168;DHT22;26906;45.658;9.272;2023-11-21T11:04:48;16.00;99.90
41168;DHT22;26906;45.658;9.272;2023-11-21T11:07:15;16.20;99.90
41168;DHT22;26906;45.658;9.272;2023-11-21T11:09:42;16.40;99.90
41168;DHT22;26906;45.658;9.272;2023-11-21T11:12:10;16.40;99.90
41168;DHT22;26906;45.658;9.272;2023-11-21T11:14:36;16.40;99.90
41168;DHT22;26906;45.658;9.272;2023-11-21T11:17:02;16.30;99.90
41168;DHT22;26906;45.658;9.272;2023-11-21T11:19:29;16.30;99.90
41168;DHT22;26906;45.658;9.272;2023-11-21T11:22:10;16.20;99.90
41168;DHT22;26906;45.658;9.272;2023-11-21T11:24:44;16.30;99.90
41168;DHT22;26906;45.658;9.272;2023-11-21T11:27:26;16.20;99.90
41168;DHT22;26906;45.658;9.272;2023-11-21T11:32:40;16.40;99.90
41168;DHT22;26906;45.658;9.272;2023-11-21T11:38:16;16.50;99.90
41168;DHT22;26906;45.658;9.272;2023-11-21T11:40:46;16.40;99.90
41168;DHT22;26906;45.658;9.272;2023-11-21T11:43:12;16.50;99.90
41168;DHT22;26906;45.658;9.272;2023-11-21T11:45:37;16.70;99.90
41168;DHT22;26906;45.658;9.272;2023-11-21T11:48:11;16.80;99.90
41168;DHT22;26906;45.658;9.272;2023-11-21T11:51:00;16.90;99.90
41168;DHT22;26906;45.658;9.272;2023-11-21T11:53:33;16.90;99.90
41168;DHT22;26906;45.658;9.272;2023-11-21T11:56:21;16.80;99.90
41168;DHT22;26906;45.658;9.272;2023-11-21T11:58:55;16.60;99.90
41168;DHT22;26906;45.658;9.272;2023-11-21T12:01:22;16.50;99.90
41168;DHT22;26906;45.658;9.272;2023-11-21T12:06:45;16.50;99.90
41168;DHT22;26906;45.658;9.272;2023-11-21T12:09:24;16.40;99.90
41168;DHT22;26906;45.658;9.272;2023-11-21T12:11:52;16.50;99.90
41168;DHT22;26906;45.658;9.272;2023-11-21T12:14:20;16.70;99.90
41168;DHT22;26906;45.658;9.272;2023-11-21T12:16:46;16.80;99.90
41168;DHT22;26906;45.658;9.272;2023-11-21T12:19:12;16.80;99.90
41168;DHT22;26906;45.658;9.272;2023-11-21T12:21:38;17.10;99.90
41168;DHT22;26906;45.658;9.272;2023-11-21T12:24:09;17.20;99.90
41168;DHT22;26906;45.658;9.272;2023-11-21T12:26:35;17.40;99.90
41168;DHT22;26906;45.658;9.272;2023-11-21T12:29:02;17.30;99.90
41168;DHT22;26906;45.658;9.272;2023-11-21T12:31:30;17.30;99.90
41168;DHT22;26906;45.658;9.272;2023-11-21T12:33:56;17.30;99.90
41168;DHT22;26906;45.658;9.272;2023-11-21T12:36:23;17.30;99.90
41168;DHT22;26906;45.658;9.272;2023-11-21T12:38:49;17.40;99.90
41168;DHT22;26906;45.658;9.272;2023-11-21T12:41:16;17.40;99.90
41168;DHT22;26906;45.658;9.272;2023-11-21T12:43:45;17.50;99.90
41168;DHT22;26906;45.658;9.272;2023-11-21T12:46:13;17.50;99.90
41168;DHT22;26906;45.658;9.272;2023-11-21T12:48:41;17.40;99.90
41168;DHT22;26906;45.658;9.272;2023-11-21T12:51:10;17.40;99.90
41168;DHT22;26906;45.658;9.272;2023-11-21T12:53:37;17.30;99.90
41168;DHT22;26906;45.658;9.272;2023-11-21T12:56:11;17.30;99.90
41168;DHT22;26906;45.658;9.272;2023-11-21T12:58:38;17.30;99.90
41168;DHT22;26906;45.658;9.272;2023-11-21T13:01:07;17.30;99.90
41168;DHT22;26906;45.658;9.272;2023-11-21T13:03:40;17.20;99.90
41168;DHT22;26906;45.658;9.272;2023-11-21T13:06:07;17.20;99.90
41168;DHT22;26906;45.658;9.272;2023-11-21T13:08:34;17.10;99.90
41168;DHT22;26906;45.658;9.272;2023-11-21T13:11:00;17.00;99.90
41168;DHT22;26906;45.658;9.272;2023-11-21T13:13:29;16.90;99.90
41168;DHT22;26906;45.658;9.272;2023-11-21T13:15:56;16.90;99.90
41168;DHT22;26906;45.658;9.272;2023-11-21T13:18:23;16.90;99.90
41168;DHT22;26906;45.658;9.272;2023-11-21T13:20:56;16.80;99.90
41168;DHT22;26906;45.658;9.272;2023-11-21T13:23:24;16.90;99.90
41168;DHT22;26906;45.658;9.272;2023-11-21T13:25:51;16.90;99.90
41168;DHT22;26906;45.658;9.272;2023-11-21T13:28:17;16.90;99.90
41168;DHT22;26906;45.658;9.272;2023-11-21T13:30:49;16.90;99.90
41168;DHT22;26906;45.658;9.272;2023-11-21T13:33:18;17.00;99.90
41168;DHT22;26906;45.658;9.272;2023-11-21T13:35:49;17.00;99.90
41168;DHT22;26906;45.658;9.272;2023-11-21T13:38:18;16.90;99.90
41168;DHT22;26906;45.658;9.272;2023-11-21T13:40:51;16.90;99.90
41168;DHT22;26906;45.658;9.272;2023-11-21T13:43:22;16.80;99.90
41168;DHT22;26906;45.658;9.272;2023-11-21T13:45:50;16.80;99.90
41168;DHT22;26906;45.658;9.272;2023-11-21T13:48:34;16.80;99.90
41168;DHT22;26906;45.658;9.272;2023-11-21T13:51:09;16.80;99.90
41168;DHT22;26906;45.658;9.272;2023-11-21T13:53:46;16.80;99.90
41168;DHT22;26906;45.658;9.272;2023-11-21T13:56:15;16.70;99.90
41168;DHT22;26906;45.658;9.272;2023-11-21T13:58:49;16.70;99.90
41168;DHT22;26906;45.658;9.272;2023-11-21T14:01:19;16.70;99.90
41168;DHT22;26906;45.658;9.272;2023-11-21T14:03:58;16.60;99.90
41168;DHT22;26906;45.658;9.272;2023-11-21T14:06:49;16.60;99.90
41168;DHT22;26906;45.658;9.272;2023-11-21T14:09:19;16.50;99.90
41168;DHT22;26906;45.658;9.272;2023-11-21T14:11:57;16.50;99.90
41168;DHT22;26906;45.658;9.272;2023-11-21T14:14:26;16.50;99.90
41168;DHT22;26906;45.658;9.272;2023-11-21T14:16:53;16.50;99.90
41168;DHT22;26906;45.658;9.272;2023-11-21T14:19:19;16.50;99.90
41168;DHT22;26906;45.658;9.272;2023-11-21T14:21:46;16.50;99.90
41168;DHT22;26906;45.658;9.272;2023-11-21T14:24:13;16.40;99.90
41168;DHT22;26906;45.658;9.272;2023-11-21T14:26:42;16.40;99.90
41168;DHT22;26906;45.658;9.272;2023-11-21T14:29:09;16.30;99.90
41168;DHT22;26906;45.658;9.272;2023-11-21T14:31:37;16.20;99.90
41168;DHT22;26906;45.658;9.272;2023-11-21T14:34:03;16.20;99.90
41168;DHT22;26906;45.658;9.272;2023-11-21T14:36:34;16.10;99.90
41168;DHT22;26906;45.658;9.272;2023-11-21T14:39:00;16.10;99.90
41168;DHT22;26906;45.658;9.272;2023-11-21T14:41:25;16.10;99.90
41168;DHT22;26906;45.658;9.272;2023-11-21T14:43:53;15.90;99.90
41168;DHT22;26906;45.658;9.272;2023-11-21T14:46:19;15.90;99.90
41168;DHT22;26906;45.658;9.272;2023-11-21T14:48:49;15.80;99.90
41168;DHT22;26906;45.658;9.272;2023-11-21T14:51:25;15.70;99.90
41168;DHT22;26906;45.658;9.272;2023-11-21T14:53:53;15.60;99.90
41168;DHT22;26906;45.658;9.272;2023-11-21T14:56:23;15.70;99.90
41168;DHT22;26906;45.658;9.272;2023-11-21T14:58:54;15.40;99.90
41168;DHT22;26906;45.658;9.272;2023-11-21T15:01:21;15.30;99.90
41168;DHT22;26906;45.658;9.272;2023-11-21T15:03:56;15.20;99.90
41168;DHT22;26906;45.658;9.272;2023-11-21T15:06:21;15.10;99.90
41168;DHT22;26906;45.658;9.272;2023-11-21T15:08:57;15.10;99.90
41168;DHT22;26906;45.658;9.272;2023-11-21T15:11:32;14.90;99.90
41168;DHT22;26906;45.658;9.272;2023-11-21T15:14:00;14.90;99.90
41168;DHT22;26906;45.658;9.272;2023-11-21T15:16:26;14.90;99.90
41168;DHT22;26906;45.658;9.272;2023-11-21T15:18:52;14.80;99.90
41168;DHT22;26906;45.658;9.272;2023-11-21T15:21:21;14.70;99.90
41168;DHT22;26906;45.658;9.272;2023-11-21T15:23:50;14.70;99.90
41168;DHT22;26906;45.658;9.272;2023-11-21T15:26:16;14.70;99.90
41168;DHT22;26906;45.658;9.272;2023-11-21T15:28:42;14.50;99.90
41168;DHT22;26906;45.658;9.272;2023-11-21T15:31:08;14.50;99.90
41168;DHT22;26906;45.658;9.272;2023-11-21T15:33:34;14.50;99.90
41168;DHT22;26906;45.658;9.272;2023-11-21T15:36:04;14.50;99.90
41168;DHT22;26906;45.658;9.272;2023-11-21T15:38:33;14.50;99.90
41168;DHT22;26906;45.658;9.272;2023-11-21T15:40:58;14.40;99.90
41168;DHT22;26906;45.658;9.272;2023-11-21T15:43:24;14.30;99.90
41168;DHT22;26906;45.658;9.272;2023-11-21T15:45:50;14.20;99.90
41168;DHT22;26906;45.658;9.272;2023-11-21T15:48:16;14.10;99.90
41168;DHT22;26906;45.658;9.272;2023-11-21T15:50:42;14.00;99.90
41168;DHT22;26906;45.658;9.272;2023-11-21T15:53:08;14.00;99.90
41168;DHT22;26906;45.658;9.272;2023-11-21T15:55:33;13.80;99.90
41168;DHT22;26906;45.658;9.272;2023-11-21T15:58:02;13.70;99.90
41168;DHT22;26906;45.658;9.272;2023-11-21T16:00:31;13.70;99.90
41168;DHT22;26906;45.658;9.272;2023-11-21T16:02:57;13.60;99.90
41168;DHT22;26906;45.658;9.272;2023-11-21T16:05:23;13.50;99.90
41168;DHT22;26906;45.658;9.272;2023-11-21T16:07:51;13.40;99.90
41168;DHT22;26906;45.658;9.272;2023-11-21T16:10:17;13.40;99.90
41168;DHT22;26906;45.658;9.272;2023-11-21T16:12:44;13.40;99.90
41168;DHT22;26906;45.658;9.272;2023-11-21T16:15:10;13.20;99.90
41168;DHT22;26906;45.658;9.272;2023-11-21T16:17:38;13.10;99.90
41168;DHT22;26906;45.658;9.272;2023-11-21T16:20:04;13.20;99.90
41168;DHT22;26906;45.658;9.272;2023-11-21T16:22:39;13.20;99.90
41168;DHT22;26906;45.658;9.272;2023-11-21T16:25:06;13.30;99.90
41168;DHT22;26906;45.658;9.272;2023-11-21T16:27:38;13.20;99.90
41168;DHT22;26906;45.658;9.272;2023-11-21T16:30:05;13.10;99.90
41168;DHT22;26906;45.658;9.272;2023-11-21T16:32:32;13.10;99.90
41168;DHT22;26906;45.658;9.272;2023-11-21T16:35:00;13.10;99.90
41168;DHT22;26906;45.658;9.272;2023-11-21T16:37:27;13.10;99.90
41168;DHT22;26906;45.658;9.272;2023-11-21T16:39:54;13.00;99.90
41168;DHT22;26906;45.658;9.272;2023-11-21T16:42:19;12.90;99.90
41168;DHT22;26906;45.658;9.272;2023-11-21T16:44:45;12.80;99.90
41168;DHT22;26906;45.658;9.272;2023-11-21T16:47:11;12.60;99.90
41168;DHT22;26906;45.658;9.272;2023-11-21T16:49:36;12.60;99.90
41168;DHT22;26906;45.658;9.272;2023-11-21T16:52:04;12.60;99.90
41168;DHT22;26906;45.658;9.272;2023-11-21T16:54:32;12.50;99.90
41168;DHT22;26906;45.658;9.272;2023-11-21T16:56:59;12.50;99.90
41168;DHT22;26906;45.658;9.272;2023-11-21T16:59:24;12.40;99.90
41168;DHT22;26906;45.658;9.272;2023-11-21T17:01:50;12.50;99.90
41168;DHT22;26906;45.658;9.272;2023-11-21T17:04:16;12.40;99.90
41168;DHT22;26906;45.658;9.272;2023-11-21T17:06:44;12.30;99.90
41168;DHT22;26906;45.658;9.272;2023-11-21T17:09:11;12.30;99.90
41168;DHT22;26906;45.658;9.272;2023-11-21T17:11:40;12.30;99.90
41168;DHT22;26906;45.658;9.272;2023-11-21T17:14:09;12.40;99.90
41168;DHT22;26906;45.658;9.272;2023-11-21T17:16:35;12.40;99.90
41168;DHT22;26906;45.658;9.272;2023-11-21T17:19:01;12.30;99.90
41168;DHT22;26906;45.658;9.272;2023-11-21T17:21:30;12.20;99.90
41168;DHT22;26906;45.658;9.272;2023-11-21T17:23:59;12.20;99.90
41168;DHT22;26906;45.658;9.272;2023-11-21T17:26:26;12.10;99.90
41168;DHT22;26906;45.658;9.272;2023-11-21T17:28:52;12.00;99.90
41168;DHT22;26906;45.658;9.272;2023-11-21T17:31:20;11.90;99.90
41168;DHT22;26906;45.658;9.272;2023-11-21T17:33:48;11.80;99.90
41168;DHT22;26906;45.658;9.272;2023-11-21T17:36:14;11.90;99.90
41168;DHT22;26906;45.658;9.272;2023-11-21T17:38:43;11.80;99.90
41168;DHT22;26906;45.658;9.272;2023-11-21T17:41:26;11.60;99.90
41168;DHT22;26906;45.658;9.272;2023-11-21T17:43:53;11.50;99.90
41168;DHT22;26906;45.658;9.272;2023-11-21T17:46:20;11.40;99.90
41168;DHT22;26906;45.658;9.272;2023-11-21T17:48:51;11.50;99.90
41168;DHT22;26906;45.658;9.272;2023-11-21T17:51:18;11.40;99.90
41168;DHT22;26906;45.658;9.272;2023-11-21T17:53:43;11.30;99.90
41168;DHT22;26906;45.658;9.272;2023-11-21T17:56:17;11.30;99.90
41168;DHT22;26906;45.658;9.272;2023-11-21T17:58:43;11.30;99.90
41168;DHT22;26906;45.658;9.272;2023-11-21T18:01:09;11.40;99.90
41168;DHT22;26906;45.658;9.272;2023-11-21T18:03:36;11.20;99.90
41168;DHT22;26906;45.658;9.272;2023-11-21T18:06:03;11.10;99.90
41168;DHT22;26906;45.658;9.272;2023-11-21T18:08:29;11.20;99.90
41168;DHT22;26906;45.658;9.272;2023-11-21T18:10:55;11.10;99.90
41168;DHT22;26906;45.658;9.272;2023-11-21T18:13:25;11.10;99.90
41168;DHT22;26906;45.658;9.272;2023-11-21T18:15:50;11.10;99.90
41168;DHT22;26906;45.658;9.272;2023-11-21T18:18:16;11.10;99.90
41168;DHT22;26906;45.658;9.272;2023-11-21T18:20:43;11.10;99.90
41168;DHT22;26906;45.658;9.272;2023-11-21T18:23:09;11.00;99.90
41168;DHT22;26906;45.658;9.272;2023-11-21T18:25:35;10.90;99.90
41168;DHT22;26906;45.658;9.272;2023-11-21T18:28:01;10.90;99.90
41168;DHT22;26906;45.658;9.272;2023-11-21T18:30:29;10.90;99.90
41168;DHT22;26906;45.658;9.272;2023-11-21T18:32:55;10.90;99.90
41168;DHT22;26906;45.658;9.272;2023-11-21T18:35:21;10.90;99.90
41168;DHT22;26906;45.658;9.272;2023-11-21T18:37:48;10.90;99.90
41168;DHT22;26906;45.658;9.272;2023-11-21T18:40:14;10.80;99.90
41168;DHT22;26906;45.658;9.272;2023-11-21T18:42:41;10.80;99.90
41168;DHT22;26906;45.658;9.272;2023-11-21T18:45:11;10.80;99.90
41168;DHT22;26906;45.658;9.272;2023-11-21T18:47:38;10.80;99.90
41168;DHT22;26906;45.658;9.272;2023-11-21T18:50:07;10.80;99.90
41168;DHT22;26906;45.658;9.272;2023-11-21T18:52:33;10.70;99.90
41168;DHT22;26906;45.658;9.272;2023-11-21T18:54:59;10.70;99.90
41168;DHT22;26906;45.658;9.272;2023-11-21T18:57:29;10.70;99.90
41168;DHT22;26906;45.658;9.272;2023-11-21T18:59:56;10.60;99.90
41168;DHT22;26906;45.658;9.272;2023-11-21T19:02:23;10.60;99.90
41168;DHT22;26906;45.658;9.272;2023-11-21T19:04:51;10.50;99.90
41168;DHT22;26906;45.658;9.272;2023-11-21T19:07:17;10.50;99.90
41168;DHT22;26906;45.658;9.272;2023-11-21T19:09:44;10.60;99.90
41168;DHT22;26906;45.658;9.272;2023-11-21T19:12:10;10.70;99.90
41168;DHT22;26906;45.658;9.272;2023-11-21T19:14:38;10.70;99.90
41168;DHT22;26906;45.658;9.272;2023-11-21T19:17:04;10.60;99.90
41168;DHT22;26906;45.658;9.272;2023-11-21T19:19:31;10.50;99.90
41168;DHT22;26906;45.658;9.272;2023-11-21T19:21:56;10.50;99.90
41168;DHT22;26906;45.658;9.272;2023-11-21T19:24:22;10.40;99.90
41168;DHT22;26906;45.658;9.272;2023-11-21T19:26:48;10.30;99.90
41168;DHT22;26906;45.658;9.272;2023-11-21T19:29:15;10.50;99.90
41168;DHT22;26906;45.658;9.272;2023-11-21T19:31:40;10.50;99.90
41168;DHT22;26906;45.658;9.272;2023-11-21T19:34:06;10.60;99.90
41168;DHT22;26906;45.658;9.272;2023-11-21T19:36:32;10.30;99.90
41168;DHT22;26906;45.658;9.272;2023-11-21T19:39:03;10.10;99.90
41168;DHT22;26906;45.658;9.272;2023-11-21T19:41:29;10.10;99.90
41168;DHT22;26906;45.658;9.272;2023-11-21T19:43:55;10.00;99.90
41168;DHT22;26906;45.658;9.272;2023-11-21T19:46:22;10.10;99.90
41168;DHT22;26906;45.658;9.272;2023-11-21T19:48:48;9.90;99.90
41168;DHT22;26906;45.658;9.272;2023-11-21T19:51:18;10.00;99.90
41168;DHT22;26906;45.658;9.272;2023-11-21T19:53:44;10.00;99.90
41168;DHT22;26906;45.658;9.272;2023-11-21T19:56:09;9.90;99.90
41168;DHT22;26906;45.658;9.272;2023-11-21T19:58:38;9.80;99.90
41168;DHT22;26906;45.658;9.272;2023-11-21T20:01:07;9.80;99.90
41168;DHT22;26906;45.658;9.272;2023-11-21T20:03:33;9.90;99.90
41168;DHT22;26906;45.658;9.272;2023-11-21T20:06:00;9.90;99.90
41168;DHT22;26906;45.658;9.272;2023-11-21T20:08:27;9.80;99.90
41168;DHT22;26906;45.658;9.272;2023-11-21T20:10:56;9.80;99.90
41168;DHT22;26906;45.658;9.272;2023-11-21T20:13:22;9.80;99.90
41168;DHT22;26906;45.658;9.272;2023-11-21T20:15:48;9.80;99.90
41168;DHT22;26906;45.658;9.272;2023-11-21T20:18:15;9.90;99.90
41168;DHT22;26906;45.658;9.272;2023-11-21T20:20:41;9.70;99.90
41168;DHT22;26906;45.658;9.272;2023-11-21T20:23:07;9.80;99.90
41168;DHT22;26906;45.658;9.272;2023-11-21T20:25:32;9.80;99.90
41168;DHT22;26906;45.658;9.272;2023-11-21T20:28:00;9.70;99.90
41168;DHT22;26906;45.658;9.272;2023-11-21T20:30:26;9.70;99.90
41168;DHT22;26906;45.658;9.272;2023-11-21T20:32:57;9.70;99.90
41168;DHT22;26906;45.658;9.272;2023-11-21T20:35:29;9.60;99.90
41168;DHT22;26906;45.658;9.272;2023-11-21T20:37:55;9.60;99.90
41168;DHT22;26906;45.658;9.272;2023-11-21T20:40:21;9.60;99.90
41168;DHT22;26906;45.658;9.272;2023-11-21T20:42:50;9.50;99.90
41168;DHT22;26906;45.658;9.272;2023-11-21T20:45:17;9.50;99.90
41168;DHT22;26906;45.658;9.272;2023-11-21T20:47:46;9.50;99.90
41168;DHT22;26906;45.658;9.272;2023-11-21T20:50:12;9.50;99.90
41168;DHT22;26906;45.658;9.272;2023-11-21T20:52:38;9.50;99.90
41168;DHT22;26906;45.658;9.272;2023-11-21T20:55:04;9.50;99.90
41168;DHT22;26906;45.658;9.272;2023-11-21T20:57:29;9.50;99.90
41168;DHT22;26906;45.658;9.272;2023-11-21T20:59:55;9.40;99.90
41168;DHT22;26906;45.658;9.272;2023-11-21T21:02:21;9.50;99.90
41168;DHT22;26906;45.658;9.272;2023-11-21T21:04:47;9.50;99.90
41168;DHT22;26906;45.658;9.272;2023-11-21T21:07:13;9.40;99.90
41168;DHT22;26906;45.658;9.272;2023-11-21T21:09:39;9.40;99.90
41168;DHT22;26906;45.658;9.272;2023-11-21T21:12:07;9.50;99.90
